Weather History for Cherokee, IA

Change the Weather History Date:

Monday, October 15, 2012

  Actual Average Record
Temperature  
Mean Temperature 51 °F -  
Max Temperature 71 °F 63 °F 90 °F (1958)
Min Temperature 31 °F 36 °F 21 °F (1974)
Degree Days  
Heating Degree Days 14    
Growing Degree Days 1 (Base 50)    
Moisture  
Dew Point 36 °F    
Average Humidity 61    
Maximum Humidity 96    
Minimum Humidity 27    
Precipitation  
Precipitation 0.00 in - - ()
Sea Level Pressure  
Sea Level Pressure 29.90 in    
Wind  
Wind Speed 3 mph (South)    
Max Wind Speed 13 mph    
Max Gust Speed 18 mph    
Visibility 10 miles    
Events      
Averages and records for this station are not official NWS values.
T = Trace of Precipitation, MM = Missing Value Source: NWS Daily Summary

Daily Weather History Graph

Daily Weather History Graph

Search for Another Location

Airport:

Trip Planner

Search our weather history database for the weather conditions in past years. The results will help you decide how hot, cold, wet, or windy it might be!

Date:

Astronomy

Oct. 15, 2012 Rise Set
Actual Time 7:36 AM CDT 6:38 PM CDT
Civil Twilight 7:07 AM CDT 7:07 PM CDT
Nautical Twilight 6:34 AM CDT 7:40 PM CDT
Astronomical Twilight 6:02 AM CDT 8:12 PM CDT
Moon 7:49 AM CDT (10/15) 6:37 PM CDT (10/15)
Length of Visible Light 11h 59m
Length of Day
11h 02m
New Moon, 0% of the Moon is Illuminated
Oct 15
New Moon
Oct 21
First Quarter
Oct 29
Full
Nov 6
Last Quarter
Nov 13
New

Hourly Weather History & Observations

Time (CDT) Temp. Windchill Dew Point Humidity Pressure Visibility Wind Dir Wind Speed Gust Speed Precip Events Conditions
12:15 AM 37.6 °F - 31.8 °F 80% 29.96 in 10.0 mi Calm Calm - N/A   Clear
12:35 AM 36.0 °F 33.3 °F 32.0 °F 86% 29.97 in 10.0 mi SSW 3.5 mph - N/A   Clear
12:55 AM 36.7 °F 34.1 °F 32.0 °F 83% 29.97 in 10.0 mi SSW 3.5 mph - N/A   Clear
1:15 AM 35.6 °F - 32.4 °F 88% 29.97 in 10.0 mi Calm Calm - N/A   Clear
1:35 AM 35.8 °F - 32.2 °F 87% 29.98 in 10.0 mi Calm Calm - N/A   Clear
1:55 AM 38.5 °F - 32.7 °F 80% 29.98 in 10.0 mi Calm Calm - N/A   Clear
2:15 AM 37.0 °F - 32.2 °F 83% 29.98 in 10.0 mi Calm Calm - N/A   Clear
2:35 AM 34.9 °F - 31.1 °F 86% 29.98 in 10.0 mi Calm Calm - N/A   Clear
2:55 AM 34.7 °F - 31.3 °F 87% 29.98 in 10.0 mi Calm Calm - N/A   Clear
3:15 AM 34.2 °F - 32.0 °F 92% 29.98 in 10.0 mi Calm Calm - N/A   Clear
3:35 AM 34.3 °F - 31.6 °F 90% 29.98 in 10.0 mi Calm Calm - N/A   Clear
3:55 AM 34.0 °F - 32.0 °F 92% 29.98 in 10.0 mi Calm Calm - N/A   Clear
4:15 AM 34.7 °F - 32.0 °F 90% 29.97 in 10.0 mi Calm Calm - N/A   Clear
4:55 AM 33.8 °F - 32.0 °F 93% 29.97 in 10.0 mi Calm Calm - N/A   Scattered Clouds
5:15 AM 32.5 °F - 30.9 °F 94% 29.97 in 10.0 mi Calm Calm - N/A   Clear
5:35 AM 33.1 °F - 31.6 °F 94% 29.97 in 10.0 mi Calm Calm - N/A   Clear
5:55 AM 31.6 °F - 29.5 °F 92% 29.96 in 10.0 mi Calm Calm - N/A   Clear
6:15 AM 31.1 °F 27.7 °F 29.1 °F 92% 29.97 in 10.0 mi SSW 3.5 mph - N/A   Clear
6:35 AM 31.8 °F - 30.2 °F 94% 29.97 in 10.0 mi Calm Calm - N/A   Clear
6:55 AM 32.0 °F - 30.9 °F 96% 29.97 in 10.0 mi Calm Calm - N/A   Clear
7:15 AM 32.2 °F - 31.3 °F 96% 29.97 in 10.0 mi Calm Calm - N/A   Clear
7:35 AM 31.1 °F - 29.7 °F 94% 29.97 in 10.0 mi Calm Calm - N/A   Clear
7:55 AM 31.8 °F - 30.0 °F 93% 29.96 in 10.0 mi Calm Calm - N/A   Clear
8:15 AM 32.2 °F - 31.3 °F 96% 29.97 in 10.0 mi Calm Calm - N/A   Clear
8:35 AM 34.0 °F - 32.4 °F 94% 29.97 in 10.0 mi Calm Calm - N/A   Clear
8:55 AM 36.5 °F - 32.9 °F 87% 29.97 in 10.0 mi Calm Calm - N/A   Clear
9:15 AM 38.8 °F - 34.0 °F 83% 29.98 in 10.0 mi Calm Calm - N/A   Clear
9:35 AM 41.9 °F - 35.6 °F 78% 29.99 in 10.0 mi Calm Calm - N/A   Clear
9:55 AM 45.0 °F - 37.0 °F 74% 29.98 in 10.0 mi Calm Calm - N/A   Clear
10:15 AM 49.1 °F - 38.5 °F 67% 29.98 in 10.0 mi Calm Calm - N/A   Clear
10:35 AM 55.2 °F - 38.1 °F 53% 29.98 in 7.0 mi SE 8.1 mph - N/A   Clear
10:55 AM 57.4 °F - 36.5 °F 46% 29.97 in 10.0 mi SSE 6.9 mph - N/A   Clear
11:15 AM 59.0 °F - 36.5 °F 43% 29.97 in 10.0 mi SSE 8.1 mph - N/A   Clear
11:35 AM 61.2 °F - 36.1 °F 39% 29.96 in 10.0 mi South 6.9 mph - N/A   Clear
11:55 AM 62.8 °F - 35.8 °F 37% 29.96 in 10.0 mi SSE 8.1 mph - N/A   Clear
12:15 PM 64.0 °F - 35.6 °F 35% 29.95 in 10.0 mi SSE 10.4 mph - N/A   Clear
12:35 PM 65.3 °F - 35.6 °F 33% 29.94 in 10.0 mi SSW 9.2 mph - N/A   Clear
12:55 PM 66.6 °F - 36.0 °F 32% 29.92 in 10.0 mi SSE 10.4 mph - N/A   Clear
1:15 PM 68.0 °F - 35.6 °F 30% 29.91 in 10.0 mi South 6.9 mph 16.1 mph N/A   Clear
1:35 PM 68.4 °F - 35.6 °F 30% 29.90 in 10.0 mi South 10.4 mph - N/A   Clear
1:55 PM 68.9 °F - 36.0 °F 30% 29.88 in 10.0 mi South 11.5 mph 16.1 mph N/A   Clear
2:15 PM 69.3 °F - 35.8 °F 29% 29.87 in 10.0 mi South 11.5 mph 18.4 mph N/A   Clear
2:35 PM 70.7 °F - 35.8 °F 28% 29.86 in 10.0 mi SSW 12.7 mph - N/A   Clear
2:55 PM 70.2 °F - 35.8 °F 28% 29.86 in 10.0 mi South 12.7 mph - N/A   Clear
3:15 PM 70.5 °F - 36.0 °F 28% 29.85 in 10.0 mi South 9.2 mph - N/A   Clear
3:35 PM 71.1 °F - 36.1 °F 28% 29.84 in 10.0 mi South 11.5 mph 16.1 mph N/A   Clear
3:55 PM 70.9 °F - 36.1 °F 28% 29.84 in 10.0 mi SSW 12.7 mph - N/A   Clear
4:15 PM 71.6 °F - 36.1 °F 27% 29.84 in 10.0 mi SSW 10.4 mph - N/A   Clear
4:35 PM 71.6 °F - 36.5 °F 28% 29.83 in 10.0 mi South 12.7 mph 17.3 mph N/A   Clear
4:55 PM 70.7 °F - 37.0 °F 29% 29.83 in 10.0 mi South 11.5 mph 17.3 mph N/A   Clear
5:15 PM 70.0 °F - 36.9 °F 30% 29.82 in 10.0 mi South 10.4 mph - N/A   Clear
5:35 PM 70.3 °F - 37.2 °F 30% 29.82 in 10.0 mi South 10.4 mph - N/A   Clear
5:55 PM 68.9 °F - 37.8 °F 32% 29.81 in 10.0 mi SSE 8.1 mph - N/A   Clear
6:15 PM 66.9 °F - 38.3 °F 35% 29.81 in 10.0 mi SSE 6.9 mph - N/A   Clear
6:35 PM 64.6 °F - 38.7 °F 38% 29.80 in 10.0 mi SSE 6.9 mph - N/A   Clear
6:55 PM 62.4 °F - 39.4 °F 43% 29.80 in 10.0 mi SSE 6.9 mph - N/A   Clear
7:15 PM 60.1 °F - 39.4 °F 46% 29.80 in 10.0 mi South 5.8 mph - N/A   Clear
7:35 PM 57.2 °F - 39.7 °F 52% 29.80 in 10.0 mi South 4.6 mph - N/A   Clear
7:55 PM 58.5 °F - 40.1 °F 51% 29.80 in 10.0 mi South 6.9 mph - N/A   Clear
8:15 PM 57.7 °F - 40.3 °F 52% 29.79 in 10.0 mi South 6.9 mph - N/A   Clear
8:35 PM 57.6 °F - 40.5 °F 53% 29.79 in 10.0 mi SSE 9.2 mph - N/A   Clear
8:55 PM 56.7 °F - 40.3 °F 54% 29.78 in 10.0 mi South 8.1 mph - N/A   Clear
9:15 PM 56.5 °F - 40.3 °F 55% 29.78 in 10.0 mi SSE 6.9 mph - N/A   Clear
9:35 PM 55.4 °F - 40.3 °F 57% 29.78 in 10.0 mi SSE 8.1 mph - N/A   Clear
9:55 PM 54.5 °F - 40.5 °F 59% 29.77 in 10.0 mi South 6.9 mph - N/A   Clear
10:15 PM 54.9 °F - 41.0 °F 60% 29.77 in 10.0 mi South 8.1 mph - N/A   Clear
10:35 PM 54.7 °F - 41.2 °F 60% 29.76 in 10.0 mi South 8.1 mph - N/A   Clear
10:55 PM 54.5 °F - 41.4 °F 61% 29.76 in 10.0 mi South 6.9 mph - N/A   Clear
11:15 PM 53.6 °F - 41.0 °F 62% 29.76 in 10.0 mi South 5.8 mph - N/A   Clear
11:35 PM 53.6 °F - 41.4 °F 63% 29.75 in 10.0 mi SSE 6.9 mph - N/A   Clear
11:55 PM 53.8 °F - 41.9 °F 64% 29.74 in 10.0 mi SSE 8.1 mph - N/A   Clear